createdAt,value
2018-12-08T00:00:01.221Z,8.40
2018-12-08T00:02:28.674Z,8.40
2018-12-08T00:04:56.245Z,8.40
2018-12-08T00:07:23.727Z,8.30
2018-12-08T00:09:51.169Z,8.30
2018-12-08T00:12:18.700Z,8.20
2018-12-08T00:14:46.310Z,8.20
2018-12-08T00:17:13.757Z,8.20
2018-12-08T00:19:41.489Z,8.10
2018-12-08T00:22:08.948Z,8.10
2018-12-08T00:24:36.745Z,8.00
2018-12-08T00:27:04.621Z,8.00
2018-12-08T00:29:32.067Z,8.00
2018-12-08T00:32:00.067Z,7.90
2018-12-08T00:34:27.593Z,7.90
2018-12-08T00:36:55.066Z,7.90
2018-12-08T00:39:22.560Z,7.80
2018-12-08T00:41:50.083Z,7.80
2018-12-08T00:44:17.887Z,7.80
2018-12-08T00:46:45.344Z,7.70
2018-12-08T00:49:13.329Z,7.70
2018-12-08T00:51:40.789Z,7.70
2018-12-08T00:54:08.626Z,7.70
2018-12-08T00:56:36.153Z,7.70
2018-12-08T00:59:03.681Z,7.70
2018-12-08T01:01:31.241Z,7.70
2018-12-08T01:03:59.060Z,7.70
2018-12-08T01:06:26.599Z,7.70
2018-12-08T01:08:54.165Z,7.70
2018-12-08T01:11:21.737Z,7.70
2018-12-08T01:13:49.212Z,7.80
2018-12-08T01:16:16.909Z,7.80
2018-12-08T01:18:44.511Z,7.80
2018-12-08T01:21:11.994Z,7.80
2018-12-08T01:23:39.700Z,7.70
2018-12-08T01:26:07.137Z,7.60
2018-12-08T01:28:34.633Z,7.60
2018-12-08T01:31:02.350Z,7.50
2018-12-08T01:33:30.000Z,7.50
2018-12-08T01:35:57.800Z,7.50
2018-12-08T01:38:25.272Z,7.40
2018-12-08T01:40:53.089Z,7.40
2018-12-08T01:43:20.571Z,7.30
2018-12-08T01:45:48.409Z,7.40
2018-12-08T01:48:15.839Z,7.30
2018-12-08T01:50:43.682Z,7.30
2018-12-08T01:53:11.352Z,7.30
2018-12-08T01:55:38.794Z,7.20
2018-12-08T01:58:06.311Z,7.10
2018-12-08T02:00:33.894Z,7.00
2018-12-08T02:03:01.365Z,6.90
2018-12-08T02:05:29.025Z,6.90
2018-12-08T02:07:56.519Z,6.90
2018-12-08T02:10:23.991Z,6.80
2018-12-08T02:12:51.473Z,6.70
2018-12-08T02:15:19.117Z,6.70
2018-12-08T02:17:47.017Z,6.60
2018-12-08T02:20:14.817Z,6.50
2018-12-08T02:22:42.299Z,6.50
2018-12-08T02:25:09.770Z,6.50
2018-12-08T02:27:37.264Z,6.50
2018-12-08T02:30:05.172Z,6.50
2018-12-08T02:32:33.320Z,6.60
2018-12-08T02:35:01.298Z,6.60
2018-12-08T02:37:28.798Z,6.70
2018-12-08T02:39:56.225Z,6.70
2018-12-08T02:42:23.731Z,6.70
2018-12-08T02:44:51.269Z,6.60
2018-12-08T02:47:18.746Z,6.60
2018-12-08T02:49:46.608Z,6.50
2018-12-08T02:52:14.085Z,6.30
2018-12-08T02:54:41.954Z,6.20
2018-12-08T02:57:09.388Z,6.20
2018-12-08T02:59:37.273Z,6.10
2018-12-08T03:02:04.822Z,6.10
2018-12-08T03:04:32.765Z,6.10
2018-12-08T03:07:00.252Z,6.00
2018-12-08T03:09:27.835Z,6.00
2018-12-08T03:11:56.051Z,6.10
2018-12-08T03:14:23.749Z,6.00
2018-12-08T03:16:51.197Z,6.00
2018-12-08T03:19:18.864Z,6.00
2018-12-08T03:21:46.549Z,6.00
2018-12-08T03:24:14.207Z,5.90
2018-12-08T03:26:41.691Z,5.90
2018-12-08T03:29:09.341Z,5.90
2018-12-08T03:31:36.788Z,5.90
2018-12-08T03:34:04.588Z,5.90
2018-12-08T03:36:32.313Z,6.00
2018-12-08T03:38:59.749Z,5.90
2018-12-08T03:41:27.217Z,5.90
2018-12-08T03:43:54.700Z,5.90
2018-12-08T03:46:22.487Z,5.80
2018-12-08T03:48:49.921Z,5.90
2018-12-08T03:51:17.420Z,5.90
2018-12-08T03:53:45.087Z,5.90
2018-12-08T03:56:12.684Z,5.80
2018-12-08T03:58:40.122Z,5.80
2018-12-08T04:01:07.655Z,5.80
2018-12-08T04:03:35.502Z,5.90
2018-12-08T04:06:03.181Z,5.80
2018-12-08T04:08:30.628Z,5.80
2018-12-08T04:10:58.054Z,5.80
2018-12-08T04:13:25.512Z,5.80
2018-12-08T04:15:53.226Z,5.80
2018-12-08T04:18:20.763Z,5.80
2018-12-08T04:20:48.584Z,5.80
2018-12-08T04:23:16.656Z,5.80
2018-12-08T04:25:44.103Z,5.80
2018-12-08T04:28:11.813Z,5.80
2018-12-08T04:30:39.254Z,5.80
2018-12-08T04:33:06.955Z,5.70
2018-12-08T04:35:34.632Z,5.70
2018-12-08T04:38:02.082Z,5.70
2018-12-08T04:40:29.533Z,5.70
2018-12-08T04:42:56.992Z,5.60
2018-12-08T04:45:24.891Z,5.70
2018-12-08T04:47:52.326Z,5.80
2018-12-08T04:50:20.367Z,5.80
2018-12-08T04:52:48.077Z,5.80
2018-12-08T04:55:15.786Z,5.80
2018-12-08T04:57:43.220Z,5.90
2018-12-08T05:00:10.761Z,5.90
2018-12-08T05:02:38.248Z,5.90
2018-12-08T05:05:06.259Z,6.00
2018-12-08T05:07:33.701Z,5.90
2018-12-08T05:10:01.602Z,6.00
2018-12-08T05:12:29.425Z,5.90
2018-12-08T05:14:57.321Z,5.80
2018-12-08T05:17:24.830Z,5.80
2018-12-08T05:19:52.476Z,5.80
2018-12-08T05:22:19.955Z,5.90
2018-12-08T05:24:47.392Z,5.90
2018-12-08T05:27:15.129Z,6.00
2018-12-08T05:29:42.740Z,5.90
2018-12-08T05:32:10.646Z,5.90
2018-12-08T05:34:38.484Z,6.00
2018-12-08T05:37:06.070Z,5.90
2018-12-08T05:39:33.516Z,5.90
2018-12-08T05:42:01.055Z,6.00
2018-12-08T05:44:29.023Z,5.90
2018-12-08T05:46:57.077Z,5.90
2018-12-08T05:49:24.909Z,5.90
2018-12-08T05:51:52.358Z,5.90
2018-12-08T05:54:20.173Z,5.80
2018-12-08T05:56:47.645Z,5.80
2018-12-08T05:59:15.121Z,5.80
2018-12-08T06:01:42.861Z,5.70
2018-12-08T06:04:10.460Z,5.70
2018-12-08T06:06:37.967Z,5.60
2018-12-08T06:09:05.917Z,5.50
2018-12-08T06:11:33.411Z,5.50
2018-12-08T06:14:00.862Z,5.50
2018-12-08T06:16:28.839Z,5.50
2018-12-08T06:18:56.543Z,5.50
2018-12-08T06:21:34.692Z,5.60
2018-12-08T06:24:02.194Z,5.50
2018-12-08T06:28:57.241Z,5.50
2018-12-08T06:31:24.724Z,5.60
2018-12-08T06:33:52.555Z,5.60
2018-12-08T06:36:20.275Z,5.60
2018-12-08T06:38:47.721Z,5.50
2018-12-08T06:41:15.332Z,5.60
2018-12-08T06:48:28.299Z,5.60
2018-12-08T06:50:56.140Z,5.50
2018-12-08T06:53:23.600Z,5.50
2018-12-08T06:55:51.087Z,5.40
2018-12-08T06:58:19.242Z,5.40
2018-12-08T07:00:46.728Z,5.40
2018-12-08T07:03:14.548Z,5.40
2018-12-08T07:05:42.412Z,5.40
2018-12-08T07:08:09.888Z,5.40
2018-12-08T07:10:37.327Z,5.50
2018-12-08T07:13:04.857Z,5.50
2018-12-08T07:15:32.536Z,5.60
2018-12-08T07:17:59.975Z,5.60
2018-12-08T07:20:28.305Z,5.60
2018-12-08T07:22:55.795Z,5.60
2018-12-08T07:25:23.268Z,5.60
2018-12-08T07:27:51.183Z,5.60
2018-12-08T07:30:18.665Z,5.60
2018-12-08T07:32:46.641Z,5.60
2018-12-08T07:35:14.468Z,5.70
2018-12-08T07:37:42.184Z,5.70
2018-12-08T07:40:09.870Z,5.70
2018-12-08T07:42:37.346Z,5.80
2018-12-08T07:45:05.474Z,5.70
2018-12-08T07:47:32.916Z,5.70
2018-12-08T07:50:00.655Z,5.80
2018-12-08T07:52:29.114Z,5.80
2018-12-08T07:54:56.556Z,5.80
2018-12-08T07:59:59.800Z,5.90
2018-12-08T08:02:27.477Z,6.00
2018-12-08T08:04:55.045Z,6.10
2018-12-08T08:07:22.507Z,6.10
2018-12-08T08:09:49.933Z,6.20
2018-12-08T08:12:17.417Z,6.30
2018-12-08T08:14:45.165Z,6.40
2018-12-08T08:17:12.629Z,6.50
2018-12-08T08:19:40.352Z,6.50
2018-12-08T08:22:07.833Z,6.50
2018-12-08T08:24:35.333Z,6.50
2018-12-08T08:27:02.916Z,6.50
2018-12-08T08:29:30.495Z,6.60
2018-12-08T08:31:58.349Z,6.60
2018-12-08T08:34:26.082Z,6.60
2018-12-08T08:36:53.631Z,6.60
2018-12-08T08:39:21.306Z,6.60
2018-12-08T08:41:48.796Z,6.70
2018-12-08T08:44:16.333Z,6.70
2018-12-08T08:46:44.378Z,6.80
2018-12-08T08:49:12.169Z,6.90
2018-12-08T08:51:39.643Z,6.90
2018-12-08T08:54:07.468Z,7.00
2018-12-08T08:56:35.315Z,7.00
2018-12-08T08:59:02.796Z,6.90
2018-12-08T09:01:30.235Z,6.80
2018-12-08T09:03:58.127Z,6.70
2018-12-08T09:06:25.634Z,6.60
2018-12-08T09:08:53.132Z,6.50
2018-12-08T09:11:20.593Z,6.40
2018-12-08T09:13:48.045Z,6.30
2018-12-08T09:16:15.614Z,6.30
2018-12-08T09:18:43.443Z,6.30
2018-12-08T09:21:10.912Z,6.40
2018-12-08T09:23:38.349Z,6.40
2018-12-08T09:26:06.667Z,6.40
2018-12-08T09:28:34.811Z,6.50
2018-12-08T09:31:02.250Z,6.60
2018-12-08T09:33:29.931Z,6.60
2018-12-08T09:35:57.759Z,6.60
2018-12-08T09:38:25.254Z,6.70
2018-12-08T09:40:52.685Z,6.70
2018-12-08T09:43:20.179Z,6.70
2018-12-08T09:45:47.750Z,6.70
2018-12-08T09:48:15.248Z,6.70
2018-12-08T09:50:43.060Z,6.70
2018-12-08T09:53:15.142Z,6.70
2018-12-08T09:55:42.705Z,6.70
2018-12-08T09:58:10.145Z,6.80
2018-12-08T10:00:37.965Z,6.80
2018-12-08T10:03:05.452Z,7.00
2018-12-08T10:05:33.188Z,7.00
2018-12-08T10:08:00.803Z,7.10
2018-12-08T10:10:28.277Z,7.30
2018-12-08T10:12:55.803Z,7.30
2018-12-08T10:15:23.728Z,7.40
2018-12-08T10:17:51.162Z,7.60
2018-12-08T10:20:19.261Z,7.80
